Terminal Aerodrome Forecast
Issued by NWS

Home | Current Version | Previous Version | Text Only | Print | Product List | Glossary On
Versions: 1 2 3 4 5 6 7 8 9 10 11 12 13 14 15 16 17 18 19 20 21 22 23 24
000
FTUS45 KTWC 271738
TAFOLS
TAF
KOLS 271738Z 2718/2818 18012KT P6SM BKN250
     FM271930 21017G27KT P6SM SCT070 BKN140 OVC200
     FM280200 18014G20KT P6SM SCT060 OVC110=

USA.gov is the U.S. government's official web portal to all federal, state and local government web resources and services.